createdAt,value
2018-09-21T00:02:13.096Z,19.90
2018-09-21T00:04:46.545Z,19.90
2018-09-21T00:07:19.927Z,19.90
2018-09-21T00:10:00.095Z,20.00
2018-09-21T00:12:33.824Z,20.00
2018-09-21T00:15:07.467Z,19.90
2018-09-21T00:17:47.467Z,19.90
2018-09-21T00:20:21.031Z,19.90
2018-09-21T00:22:54.447Z,19.90
2018-09-21T00:25:28.047Z,19.90
2018-09-21T00:28:01.610Z,19.90
2018-09-21T00:30:35.211Z,19.90
2018-09-21T00:33:08.834Z,19.90
2018-09-21T00:35:42.373Z,19.90
2018-09-21T00:38:22.277Z,19.90
2018-09-21T00:40:55.824Z,19.90
2018-09-21T00:43:29.544Z,19.90
2018-09-21T00:46:02.987Z,19.90
2018-09-21T00:48:36.451Z,19.80
2018-09-21T00:51:16.399Z,19.80
2018-09-21T00:53:49.798Z,19.80
2018-09-21T00:56:23.573Z,19.90
2018-09-21T00:58:57.012Z,19.80
2018-09-21T01:01:36.960Z,19.80
2018-09-21T01:04:16.838Z,19.80
2018-09-21T01:06:50.431Z,19.80
2018-09-21T01:09:24.883Z,19.80
2018-09-21T01:12:04.740Z,19.80
2018-09-21T01:14:38.208Z,19.80
2018-09-21T01:17:11.731Z,19.80
2018-09-21T01:19:45.204Z,19.80
2018-09-21T01:22:19.618Z,19.80
2018-09-21T01:24:53.154Z,19.80
2018-09-21T01:27:26.776Z,19.80
2018-09-21T01:30:00.307Z,19.80
2018-09-21T01:32:33.911Z,19.80
2018-09-21T01:35:07.328Z,19.90
2018-09-21T01:37:40.976Z,19.90
2018-09-21T01:40:14.434Z,19.90
2018-09-21T01:42:47.798Z,19.90
2018-09-21T01:45:21.427Z,19.90
2018-09-21T01:47:54.915Z,19.90
2018-09-21T01:50:28.385Z,20.00
2018-09-21T01:53:03.135Z,20.00
2018-09-21T01:55:36.564Z,20.00
2018-09-21T01:58:10.168Z,19.90
2018-09-21T02:00:43.739Z,20.00
2018-09-21T02:03:17.210Z,20.00
2018-09-21T02:05:50.796Z,20.00
2018-09-21T02:08:24.378Z,20.00
2018-09-21T02:10:58.088Z,20.00
2018-09-21T02:13:31.649Z,20.00
2018-09-21T02:16:05.118Z,20.00
2018-09-21T02:18:45.000Z,19.90
2018-09-21T02:21:18.424Z,20.00
2018-09-21T02:23:51.982Z,20.00
2018-09-21T02:26:26.193Z,20.00
2018-09-21T02:29:00.727Z,19.90
2018-09-21T02:31:34.249Z,20.00
2018-09-21T02:34:08.765Z,20.00
2018-09-21T02:36:42.588Z,20.00
2018-09-21T02:39:16.164Z,20.00
2018-09-21T02:41:49.795Z,20.10
2018-09-21T02:44:23.233Z,20.10
2018-09-21T02:46:56.921Z,20.10
2018-09-21T02:49:36.851Z,20.10
2018-09-21T02:52:10.549Z,20.00
2018-09-21T02:54:44.012Z,20.00
2018-09-21T02:57:18.476Z,20.10
2018-09-21T02:59:52.066Z,20.10
2018-09-21T03:02:25.693Z,20.10
2018-09-21T03:05:00.171Z,20.10
2018-09-21T03:07:39.996Z,20.10
2018-09-21T03:10:13.543Z,20.10
2018-09-21T03:12:47.097Z,20.10
2018-09-21T03:15:26.821Z,20.10
2018-09-21T03:18:00.189Z,20.10
2018-09-21T03:20:33.758Z,20.10
2018-09-21T03:23:07.127Z,20.20
2018-09-21T03:25:41.625Z,20.20
2018-09-21T03:28:15.235Z,20.20
2018-09-21T03:30:48.708Z,20.20
2018-09-21T03:33:23.261Z,20.30
2018-09-21T03:35:56.832Z,20.20
2018-09-21T03:38:31.350Z,20.20
2018-09-21T03:41:04.983Z,20.20
2018-09-21T03:43:38.782Z,20.30
2018-09-21T03:46:12.458Z,20.30
2018-09-21T03:48:45.963Z,20.30
2018-09-21T03:51:20.613Z,20.30
2018-09-21T03:53:57.351Z,20.30
2018-09-21T03:56:30.957Z,20.30
2018-09-21T03:59:10.971Z,20.30
2018-09-21T04:01:50.947Z,20.40
2018-09-21T04:04:24.409Z,20.40
2018-09-21T04:06:58.328Z,20.40
2018-09-21T04:09:32.023Z,20.40
2018-09-21T04:12:11.791Z,20.40
2018-09-21T04:14:45.383Z,20.40
2018-09-21T04:17:19.017Z,20.40
2018-09-21T04:19:52.452Z,20.40
2018-09-21T04:22:26.115Z,20.50
2018-09-21T04:25:07.291Z,20.50
2018-09-21T04:27:41.818Z,20.50
2018-09-21T04:30:15.540Z,20.50
2018-09-21T04:32:49.460Z,20.50
2018-09-21T04:35:29.972Z,20.60
2018-09-21T04:38:03.725Z,20.60
2018-09-21T04:40:38.414Z,20.60
2018-09-21T04:43:12.345Z,20.70
2018-09-21T04:45:46.257Z,20.60
2018-09-21T04:48:20.887Z,20.70
2018-09-21T04:50:54.715Z,20.70
2018-09-21T04:53:29.353Z,20.70
2018-09-21T04:56:09.753Z,20.70
2018-09-21T04:58:43.663Z,20.70
2018-09-21T05:01:23.789Z,20.70
2018-09-21T05:03:57.279Z,20.70
2018-09-21T05:06:30.927Z,20.70
2018-09-21T05:09:07.103Z,20.80
2018-09-21T05:11:47.219Z,20.80
2018-09-21T05:14:27.231Z,20.80
2018-09-21T05:17:00.699Z,20.80
2018-09-21T05:19:34.253Z,20.80
2018-09-21T05:22:07.944Z,20.80
2018-09-21T05:24:47.936Z,20.90
2018-09-21T05:27:27.982Z,20.90
2018-09-21T05:30:01.528Z,20.90
2018-09-21T05:32:35.703Z,20.80
2018-09-21T05:35:15.724Z,20.80
2018-09-21T05:37:49.085Z,20.90
2018-09-21T05:40:22.833Z,20.90
2018-09-21T05:42:57.504Z,20.90
2018-09-21T05:45:31.076Z,20.90
2018-09-21T05:48:04.538Z,20.90
2018-09-21T05:50:44.573Z,20.90
2018-09-21T05:53:24.555Z,20.80
2018-09-21T05:55:58.163Z,20.90
2018-09-21T05:58:31.887Z,20.90
2018-09-21T06:01:05.779Z,20.90
2018-09-21T06:03:39.469Z,20.90
2018-09-21T06:06:13.180Z,20.90
2018-09-21T06:08:53.083Z,20.90
2018-09-21T06:11:32.942Z,20.90
2018-09-21T06:14:06.505Z,20.90
2018-09-21T06:16:46.545Z,20.90
2018-09-21T06:19:26.457Z,21.00
2018-09-21T06:22:06.430Z,21.00
2018-09-21T06:24:39.887Z,21.00
2018-09-21T06:27:13.444Z,21.00
2018-09-21T06:29:53.329Z,21.10
2018-09-21T06:32:33.217Z,21.00
2018-09-21T06:35:12.998Z,20.90
2018-09-21T06:37:47.372Z,20.60
2018-09-21T06:40:20.877Z,20.40
2018-09-21T06:42:54.310Z,20.40
2018-09-21T06:45:27.888Z,20.40
2018-09-21T06:48:02.394Z,20.50
2018-09-21T06:50:36.812Z,20.60
2018-09-21T06:53:10.595Z,20.70
2018-09-21T06:55:50.437Z,20.80
2018-09-21T06:58:23.831Z,20.90
2018-09-21T07:01:00.304Z,21.00
2018-09-21T07:03:33.787Z,20.70
2018-09-21T07:06:07.671Z,20.40
2018-09-21T07:08:41.888Z,20.10
2018-09-21T07:11:15.379Z,19.90
2018-09-21T07:13:49.974Z,19.70
2018-09-21T07:16:23.373Z,19.70
2018-09-21T07:18:56.775Z,19.80
2018-09-21T07:21:30.329Z,19.90
2018-09-21T07:24:03.796Z,19.70
2018-09-21T07:26:37.217Z,19.20
2018-09-21T07:29:10.755Z,18.70
2018-09-21T07:31:44.228Z,18.40
2018-09-21T07:34:17.848Z,18.20
2018-09-21T07:36:57.618Z,17.90
2018-09-21T07:39:31.154Z,17.80
2018-09-21T07:42:05.526Z,17.70
2018-09-21T07:44:45.241Z,17.70
2018-09-21T07:47:25.064Z,17.70
2018-09-21T07:49:59.484Z,17.60
2018-09-21T07:52:33.041Z,17.60
2018-09-21T07:55:07.564Z,17.50
2018-09-21T07:57:47.458Z,17.50
2018-09-21T08:00:20.837Z,17.50
2018-09-21T08:02:54.497Z,17.50
2018-09-21T08:05:34.869Z,17.50
2018-09-21T08:08:14.597Z,17.50
2018-09-21T08:10:54.388Z,17.50
2018-09-21T08:13:34.351Z,17.50
2018-09-21T08:16:08.702Z,17.50
2018-09-21T08:18:42.371Z,17.50
2018-09-21T08:21:15.892Z,17.50
2018-09-21T08:23:50.316Z,17.50
2018-09-21T08:26:24.077Z,17.60
2018-09-21T08:28:58.396Z,17.60
2018-09-21T08:31:38.441Z,17.60
2018-09-21T08:34:18.492Z,17.60
2018-09-21T08:36:58.586Z,17.60
2018-09-21T08:39:33.131Z,17.50
2018-09-21T08:42:06.724Z,17.50
2018-09-21T08:44:40.499Z,17.50
2018-09-21T08:47:14.061Z,17.40
2018-09-21T08:49:54.152Z,17.40
2018-09-21T08:52:28.868Z,17.40
2018-09-21T08:55:03.439Z,17.40
2018-09-21T08:57:37.964Z,17.30
2018-09-21T09:00:11.548Z,17.30
2018-09-21T09:02:45.325Z,17.20
2018-09-21T09:05:21.431Z,17.10
2018-09-21T09:07:55.960Z,17.10
2018-09-21T09:10:35.835Z,17.10
2018-09-21T09:13:09.426Z,17.00
2018-09-21T09:15:50.167Z,17.00
2018-09-21T09:18:23.812Z,16.80
2018-09-21T09:21:03.879Z,16.60
2018-09-21T09:23:43.722Z,16.50
2018-09-21T09:26:17.388Z,16.40
2018-09-21T09:28:57.328Z,16.40
2018-09-21T09:31:37.362Z,16.40
2018-09-21T09:34:10.923Z,16.30
2018-09-21T09:36:44.392Z,16.20
2018-09-21T09:39:17.800Z,16.20
2018-09-21T09:41:52.328Z,16.10
2018-09-21T09:44:25.890Z,16.00
2018-09-21T09:46:59.548Z,16.00
2018-09-21T09:49:39.672Z,16.00
2018-09-21T09:52:14.282Z,16.10
2018-09-21T09:54:54.255Z,16.20
2018-09-21T09:57:27.839Z,16.20
2018-09-21T10:00:01.367Z,16.20
2018-09-21T10:02:34.715Z,16.20
2018-09-21T10:05:08.633Z,16.30
2018-09-21T10:07:48.604Z,16.50
2018-09-21T10:10:22.280Z,16.60
2018-09-21T10:12:55.901Z,16.80
2018-09-21T10:15:35.800Z,16.80
2018-09-21T10:18:15.854Z,16.80
2018-09-21T10:20:49.572Z,17.00
2018-09-21T10:23:23.199Z,17.20
2018-09-21T10:25:56.909Z,17.20
2018-09-21T10:28:30.589Z,17.50
2018-09-21T10:31:10.526Z,17.50
2018-09-21T10:33:45.368Z,17.40
2018-09-21T10:36:19.817Z,17.30
2018-09-21T10:38:59.661Z,17.20
2018-09-21T10:41:39.625Z,17.20
2018-09-21T10:44:13.186Z,17.20
2018-09-21T10:46:47.085Z,17.50
2018-09-21T10:49:20.569Z,17.50
2018-09-21T10:52:00.518Z,17.30
2018-09-21T10:54:34.111Z,17.10
2018-09-21T10:57:07.515Z,16.80
2018-09-21T10:59:41.117Z,16.50
2018-09-21T11:02:14.801Z,16.20
2018-09-21T11:04:48.411Z,16.20
2018-09-21T11:07:22.056Z,16.30
2018-09-21T11:10:01.835Z,16.40
2018-09-21T11:12:35.516Z,16.40
2018-09-21T11:15:09.071Z,16.50
2018-09-21T11:17:42.712Z,16.70
2018-09-21T11:20:17.380Z,17.10
2018-09-21T11:22:50.988Z,17.10
2018-09-21T11:25:24.960Z,17.20
2018-09-21T11:27:58.728Z,17.20
2018-09-21T11:30:32.569Z,17.20
2018-09-21T11:33:06.206Z,17.10
2018-09-21T11:35:46.414Z,17.00
2018-09-21T11:38:20.237Z,17.00
2018-09-21T11:41:00.376Z,17.00
2018-09-21T11:43:33.790Z,17.10
2018-09-21T11:46:07.549Z,17.20
2018-09-21T11:48:40.915Z,17.30
2018-09-21T11:51:14.488Z,17.20
2018-09-21T11:53:49.221Z,17.30
2018-09-21T11:56:22.784Z,17.30
2018-09-21T11:58:56.435Z,17.30
2018-09-21T12:01:36.661Z,17.30
2018-09-21T12:04:10.383Z,17.40
2018-09-21T12:06:44.180Z,17.40
2018-09-21T12:09:17.810Z,17.50
2018-09-21T12:11:52.232Z,17.70
2018-09-21T12:14:26.722Z,17.90
2018-09-21T12:17:00.481Z,18.00
2018-09-21T12:19:40.677Z,17.80
2018-09-21T12:22:20.702Z,17.70
2018-09-21T12:24:54.209Z,17.50
2018-09-21T12:27:34.300Z,17.40
2018-09-21T12:30:07.911Z,17.40
2018-09-21T12:32:47.914Z,17.30
2018-09-21T12:35:22.449Z,16.80
2018-09-21T12:37:56.234Z,16.70
2018-09-21T12:40:29.764Z,16.70
2018-09-21T12:43:03.477Z,16.80
2018-09-21T12:45:37.127Z,17.00
2018-09-21T12:48:17.114Z,17.30
2018-09-21T12:50:57.231Z,17.70
2018-09-21T12:53:32.101Z,18.10
2018-09-21T12:56:05.759Z,18.30
2018-09-21T12:58:45.960Z,18.70
2018-09-21T13:01:20.528Z,19.20
2018-09-21T13:04:00.596Z,19.60
2018-09-21T13:06:34.172Z,19.50
2018-09-21T13:09:07.976Z,19.20
2018-09-21T13:11:47.984Z,18.80
2018-09-21T13:14:21.554Z,18.60
2018-09-21T13:17:01.516Z,18.60
2018-09-21T13:19:41.414Z,19.50
2018-09-21T13:22:14.995Z,20.20
2018-09-21T13:24:54.852Z,21.00
2018-09-21T13:27:28.512Z,21.90
2018-09-21T13:30:02.003Z,22.40
2018-09-21T13:32:36.516Z,23.30
2018-09-21T13:35:16.455Z,24.00
2018-09-21T13:37:49.957Z,24.30
2018-09-21T13:40:23.552Z,24.30
2018-09-21T13:43:03.384Z,23.60
2018-09-21T13:45:36.984Z,22.70
2018-09-21T13:48:10.517Z,22.00
2018-09-21T13:50:44.743Z,21.00
2018-09-21T13:53:18.447Z,20.20
2018-09-21T13:55:52.009Z,20.20
2018-09-21T13:58:32.188Z,20.40
2018-09-21T14:01:06.106Z,20.40
2018-09-21T14:03:39.901Z,19.90
2018-09-21T14:06:13.791Z,19.20
2018-09-21T14:08:47.465Z,18.70
2018-09-21T14:11:27.341Z,18.90
2018-09-21T14:14:00.860Z,19.20
2018-09-21T14:16:40.863Z,19.40
2018-09-21T14:19:14.609Z,19.90
2018-09-21T14:21:54.790Z,20.10
2018-09-21T14:24:29.324Z,20.00
2018-09-21T14:27:04.152Z,20.20
2018-09-21T14:29:37.805Z,20.20
2018-09-21T14:32:11.648Z,20.40
2018-09-21T14:34:45.597Z,20.50
2018-09-21T14:37:25.616Z,20.30
2018-09-21T14:39:59.304Z,19.90
2018-09-21T14:42:33.254Z,19.40
2018-09-21T14:45:13.028Z,19.00
2018-09-21T14:47:46.542Z,18.80
2018-09-21T14:50:20.185Z,18.80
2018-09-21T14:52:53.790Z,19.00
2018-09-21T14:55:27.258Z,19.00
2018-09-21T14:58:07.011Z,18.80
2018-09-21T15:00:46.949Z,18.70
2018-09-21T15:03:20.679Z,18.60
2018-09-21T15:05:54.423Z,18.50
2018-09-21T15:08:28.253Z,18.50
2018-09-21T15:11:01.719Z,18.40
2018-09-21T15:13:41.863Z,18.30
2018-09-21T15:16:15.546Z,18.20
2018-09-21T15:18:55.629Z,18.10
2018-09-21T15:21:35.677Z,18.20
2018-09-21T15:24:11.150Z,18.20
2018-09-21T15:26:44.697Z,18.20
2018-09-21T15:29:18.524Z,18.20
2018-09-21T15:31:52.270Z,18.20
2018-09-21T15:34:25.692Z,18.10
2018-09-21T15:36:59.211Z,18.20
2018-09-21T15:39:32.996Z,18.10
2018-09-21T15:42:06.974Z,18.10
2018-09-21T15:44:46.833Z,18.10
2018-09-21T15:47:20.526Z,18.00
2018-09-21T15:50:00.448Z,18.00
2018-09-21T15:52:33.937Z,17.90
2018-09-21T15:55:07.579Z,17.90
2018-09-21T15:57:41.273Z,17.70
2018-09-21T16:00:17.018Z,17.70
2018-09-21T16:02:51.304Z,17.70
2018-09-21T16:05:26.449Z,17.80
2018-09-21T16:08:00.048Z,17.90
2018-09-21T16:10:40.032Z,17.80
2018-09-21T16:13:13.645Z,17.80
2018-09-21T16:15:47.758Z,17.80
2018-09-21T16:18:27.880Z,17.70
2018-09-21T16:21:07.891Z,17.70
2018-09-21T16:23:42.492Z,17.60
2018-09-21T16:26:15.927Z,17.60
2018-09-21T16:28:49.611Z,17.50
2018-09-21T16:31:23.265Z,17.30
2018-09-21T16:33:56.891Z,17.30
2018-09-21T16:36:31.720Z,17.30
2018-09-21T16:39:12.372Z,17.30
2018-09-21T16:41:52.419Z,17.30
2018-09-21T16:44:26.256Z,17.20
2018-09-21T16:46:59.939Z,17.10
2018-09-21T16:49:34.356Z,17.00
2018-09-21T16:52:14.332Z,17.00
2018-09-21T16:54:47.839Z,16.90
2018-09-21T16:57:27.772Z,16.90
2018-09-21T17:00:01.276Z,16.70
2018-09-21T17:02:41.253Z,16.70
2018-09-21T17:05:16.040Z,16.70
2018-09-21T17:07:50.240Z,16.60
2018-09-21T17:10:23.813Z,16.60
2018-09-21T17:13:03.817Z,16.60
2018-09-21T17:15:37.405Z,16.50
2018-09-21T17:18:17.585Z,16.50
2018-09-21T17:20:51.144Z,16.50
2018-09-21T17:23:24.724Z,16.50
2018-09-21T17:25:58.327Z,16.40
2018-09-21T17:28:32.229Z,16.30
2018-09-21T17:31:05.808Z,16.30
2018-09-21T17:33:39.453Z,16.40
2018-09-21T17:36:13.011Z,16.40
2018-09-21T17:38:52.859Z,16.40
2018-09-21T17:41:33.118Z,16.40
2018-09-21T17:44:13.170Z,16.50
2018-09-21T17:46:46.669Z,16.20
2018-09-21T17:49:27.293Z,15.50
2018-09-21T17:52:00.867Z,14.70
2018-09-21T17:54:34.460Z,13.70
2018-09-21T17:57:08.427Z,13.00
2018-09-21T17:59:48.377Z,12.50
2018-09-21T18:02:28.320Z,12.20
2018-09-21T18:05:01.812Z,12.20
2018-09-21T18:07:35.297Z,12.20
2018-09-21T18:10:10.772Z,12.20
2018-09-21T18:12:44.130Z,12.20
2018-09-21T18:15:24.023Z,12.30
2018-09-21T18:17:57.484Z,12.20
2018-09-21T18:20:37.334Z,12.10
2018-09-21T18:23:17.393Z,12.10
2018-09-21T18:25:57.365Z,12.00
2018-09-21T18:28:32.217Z,11.90
2018-09-21T18:31:05.779Z,11.80
2018-09-21T18:33:39.268Z,11.70
2018-09-21T18:36:12.800Z,11.70
2018-09-21T18:38:46.194Z,11.50
2018-09-21T18:41:20.533Z,11.40
2018-09-21T18:43:54.380Z,11.30
2018-09-21T18:46:28.009Z,11.40
2018-09-21T18:49:01.827Z,11.50
2018-09-21T18:51:35.372Z,11.50
2018-09-21T18:54:10.162Z,11.40
2018-09-21T18:56:44.207Z,11.30
2018-09-21T18:59:17.798Z,11.20
2018-09-21T19:01:57.856Z,11.10
2018-09-21T19:04:37.787Z,11.20
2018-09-21T19:07:17.161Z,11.30
2018-09-21T19:09:57.540Z,11.20
2018-09-21T19:12:37.562Z,11.10
2018-09-21T19:15:11.165Z,11.10
2018-09-21T19:17:44.812Z,11.10
2018-09-21T19:20:24.773Z,11.00
2018-09-21T19:22:58.472Z,11.00
2018-09-21T19:25:38.359Z,10.90
2018-09-21T19:28:12.114Z,10.80
2018-09-21T19:30:52.150Z,10.90
2018-09-21T19:33:25.716Z,10.90
2018-09-21T19:36:00.392Z,10.80
2018-09-21T19:38:34.263Z,10.80
2018-09-21T19:41:07.810Z,10.80
2018-09-21T19:43:41.384Z,10.90
2018-09-21T19:46:21.634Z,10.80
2018-09-21T19:49:01.461Z,10.80
2018-09-21T19:51:41.504Z,10.80
2018-09-21T19:54:15.057Z,10.80
2018-09-21T19:56:55.345Z,10.70
2018-09-21T19:59:35.432Z,10.70
2018-09-21T20:02:15.425Z,10.60
2018-09-21T20:04:49.111Z,10.70
2018-09-21T20:37:53.646Z,9.90
2018-09-21T20:40:27.406Z,9.90
2018-09-21T20:43:00.988Z,10.10
2018-09-21T20:45:34.499Z,10.30
2018-09-21T20:48:08.140Z,10.50
2018-09-21T20:50:48.370Z,10.50
2018-09-21T20:53:22.819Z,10.60
2018-09-21T20:56:02.930Z,10.60
2018-09-21T20:58:36.989Z,10.70
2018-09-21T21:01:10.761Z,10.70
2018-09-21T21:03:44.625Z,10.80
2018-09-21T21:06:19.566Z,10.80
2018-09-21T21:08:59.742Z,10.80
2018-09-21T21:11:33.456Z,10.80
2018-09-21T21:14:13.836Z,10.80
2018-09-21T21:16:47.981Z,10.80
2018-09-21T21:19:29.224Z,10.80
2018-09-21T21:22:09.635Z,10.70
2018-09-21T21:24:43.579Z,10.80
2018-09-21T21:27:23.656Z,10.80
2018-09-21T21:29:57.330Z,10.80
2018-09-21T21:32:30.752Z,10.80
2018-09-21T21:35:04.210Z,10.80
2018-09-21T21:37:38.887Z,10.70
2018-09-21T21:40:12.629Z,10.70
2018-09-21T21:42:52.655Z,10.70
2018-09-21T21:45:26.345Z,10.70
2018-09-21T21:48:00.744Z,10.70
2018-09-21T21:50:34.371Z,10.70
2018-09-21T21:53:08.166Z,10.80
2018-09-21T21:55:41.860Z,10.80
2018-09-21T21:58:15.631Z,10.70
2018-09-21T22:00:54.923Z,10.70
2018-09-21T22:03:29.524Z,10.60
2018-09-21T22:06:03.008Z,10.60
2018-09-21T22:08:46.340Z,10.60
2018-09-21T22:11:25.836Z,10.60
2018-09-21T22:14:07.426Z,10.60
2018-09-21T22:16:40.758Z,10.70
2018-09-21T22:19:14.225Z,10.70
2018-09-21T22:21:48.030Z,10.70
2018-09-21T22:24:21.427Z,10.60
2018-09-21T22:26:54.994Z,10.70
2018-09-21T22:29:28.373Z,10.60
2018-09-21T22:32:08.094Z,10.60
2018-09-21T22:34:47.840Z,10.70
2018-09-21T22:37:21.364Z,10.70
2018-09-21T22:39:54.734Z,10.70
2018-09-21T22:42:28.098Z,10.80
2018-09-21T22:45:02.578Z,10.80
2018-09-21T22:47:35.981Z,10.70
2018-09-21T22:50:09.650Z,10.70
2018-09-21T22:52:43.168Z,10.80
2018-09-21T22:55:16.626Z,10.80
2018-09-21T22:57:50.056Z,10.80
2018-09-21T23:00:23.551Z,10.70
2018-09-21T23:02:57.124Z,10.70
2018-09-21T23:05:30.617Z,10.70
2018-09-21T23:08:04.237Z,10.70
2018-09-21T23:10:44.037Z,10.80
2018-09-21T23:13:17.617Z,10.80
2018-09-21T23:15:51.466Z,10.70
2018-09-21T23:18:24.947Z,10.70
2018-09-21T23:21:04.794Z,10.70
2018-09-21T23:23:38.435Z,10.80
2018-09-21T23:26:12.025Z,10.80
2018-09-21T23:28:45.635Z,10.80
2018-09-21T23:38:28.513Z,10.80
2018-09-21T23:41:02.996Z,10.70
2018-09-21T23:43:36.624Z,10.70
2018-09-21T23:46:10.268Z,10.70
2018-09-21T23:48:43.787Z,10.70
2018-09-21T23:51:23.918Z,10.70
2018-09-21T23:53:57.392Z,10.80
2018-09-21T23:56:30.977Z,10.80
2018-09-21T23:59:11.005Z,10.80
